Terminal Aerodrome Forecast
Issued by NWS Corpus Christi, TX

Home | Current Version | Previous Version | Text Only | Print | Product List | Glossary On
Versions: 1 2 3 4 5 6 7 8 9 10 11 12 13 14 15
000
FTUS44 KCRP 271127
TAFVCT
TAF
KVCT 271127Z 2712/2812 14007KT 6SM BR SCT010 BKN025 OVC035
      TEMPO 2712/2713 5SM BR BKN010 OVC025
     FM271500 17014G18KT P6SM VCSH BKN030 OVC040
      TEMPO 2716/2720 VRB15G25KT 5SM TSRA OVC025CB
     FM272000 16015G25KT P6SM VCTS BKN035CB
      TEMPO 2720/2723 VRB20G30KT 5SM TSRA OVC030CB
     FM280200 15012KT P6SM SCT025 BKN250
     FM280700 11004KT P6SM BKN015=

USA.gov is the U.S. government's official web portal to all federal, state and local government web resources and services.